Tropical Cyclones
[Index]
Main Index Home Page Stock Weather Photos Extreme Storms Discussion Storm News and Storm Chasing Reports Tropical Cyclones / Hurricanes / Typhoons Weather Data and Links Wild Fires / Bushfires Weather Observation Techniques Weather Picture Catalogue Tornado Pictures and Reports Stock Video Footage and DVDs for sale
Season 1957-1958 Tropical Cyclone 195806 Track Map
Season 1957-1958 Summaries: [BoM-AU] [JTWC-AU] [JTWC-SIO] [JTWC-SPAC] [JTWC-SH]
<<- Previous TC | JTWC 1957-1958 Season | Next TC ->>

click for intensity scale information  Lat/long Grid: Show Hide

 Date Labels: Show Hide

Joint Typhoon Warning Centre Cyclone Data

Name: 195806
Number: 313 / 5806

11 Jan 1958 06:00 UTC to 16 Jan 1958 12:00 UTC

    date/time    lat    long     hPa   cat  kts
1958-01-11 06   11.1   137.0                  20          
1958-01-11 12   11.6   137.3                  20          
1958-01-11 18   12.1   137.4                  20          
1958-01-12 00   12.6   137.4                  20          
1958-01-12 06   13.1   137.4                  20          
1958-01-12 12   14.3   137.2                  15          
1958-01-12 18   15.0   137.0                  10          
1958-01-13 00   13.9   136.5                  10          
1958-01-13 06   13.0   135.8                  10          
1958-01-13 12   12.9   133.7                  10          
1958-01-13 18   13.1   132.5                  10          
1958-01-14 00   13.7   132.4                  15          
1958-01-14 06   14.0   132.4                  15          
1958-01-14 12   14.0   132.3                  10          
1958-01-14 18   14.0   132.1                  10          
1958-01-15 00   14.0   130.7                  20          
1958-01-15 06   14.1   128.6                  30          
1958-01-15 12   15.8   125.9                  20          
1958-01-15 18   17.0   123.8                  15          
1958-01-16 00   15.8   122.6                  20          
1958-01-16 06   15.0   121.9                  20          
1958-01-16 12   15.3   121.3                  20          
Winds are 1-min average.

Tropical cyclone tracks developed by Michael Bath using data from the Joint Typhoon Warning Centre Best Tracks and Google Maps.


[Australian Severe Weather index] [Copyright Notice] [Email Contacts] [Search This Site] [Privacy Policy]
Document: tropical_cyclone_195806.htm Updated: 18 September 2016